sensor_id;sensor_type;location;lat;lon;timestamp;pressure;altitude;pressure_sealevel;temperature;humidity
13029;BME280;6581;42.662;23.402;2022-12-18T00:01:00;96090.75;;;7.26;100.00
13029;BME280;6581;42.662;23.402;2022-12-18T00:03:32;96097.47;;;7.15;100.00
13029;BME280;6581;42.662;23.402;2022-12-18T00:05:59;96101.63;;;7.16;100.00
13029;BME280;6581;42.662;23.402;2022-12-18T00:08:26;96087.84;;;7.19;100.00
13029;BME280;6581;42.662;23.402;2022-12-18T00:10:53;96097.19;;;7.07;100.00
13029;BME280;6581;42.662;23.402;2022-12-18T00:13:22;96103.09;;;7.04;100.00
13029;BME280;6581;42.662;23.402;2022-12-18T00:15:50;96108.66;;;7.03;100.00
13029;BME280;6581;42.662;23.402;2022-12-18T00:18:17;96113.00;;;6.99;100.00
13029;BME280;6581;42.662;23.402;2022-12-18T00:20:44;96110.69;;;6.97;100.00
13029;BME280;6581;42.662;23.402;2022-12-18T00:23:11;96125.38;;;7.07;100.00
13029;BME280;6581;42.662;23.402;2022-12-18T00:25:38;96116.09;;;7.09;100.00
13029;BME280;6581;42.662;23.402;2022-12-18T00:28:05;96125.38;;;7.07;100.00
13029;BME280;6581;42.662;23.402;2022-12-18T00:30:37;96119.53;;;6.93;100.00
13029;BME280;6581;42.662;23.402;2022-12-18T00:33:04;96123.28;;;6.92;100.00
13029;BME280;6581;42.662;23.402;2022-12-18T00:35:31;96133.63;;;6.88;100.00
13029;BME280;6581;42.662;23.402;2022-12-18T00:37:58;96137.69;;;6.77;100.00
13029;BME280;6581;42.662;23.402;2022-12-18T00:40:26;96141.88;;;6.61;100.00
13029;BME280;6581;42.662;23.402;2022-12-18T00:42:53;96136.31;;;6.54;100.00
13029;BME280;6581;42.662;23.402;2022-12-18T00:45:24;96128.72;;;6.52;100.00
13029;BME280;6581;42.662;23.402;2022-12-18T00:47:54;96136.00;;;6.47;100.00
13029;BME280;6581;42.662;23.402;2022-12-18T00:50:22;96145.75;;;6.38;100.00
13029;BME280;6581;42.662;23.402;2022-12-18T00:52:50;96133.34;;;6.38;100.00
13029;BME280;6581;42.662;23.402;2022-12-18T00:55:18;96149.00;;;6.35;100.00
13029;BME280;6581;42.662;23.402;2022-12-18T00:57:46;96160.31;;;6.35;100.00
13029;BME280;6581;42.662;23.402;2022-12-18T01:00:15;96157.19;;;6.33;100.00
13029;BME280;6581;42.662;23.402;2022-12-18T01:02:42;96159.03;;;6.24;100.00
13029;BME280;6581;42.662;23.402;2022-12-18T01:05:12;96168.34;;;6.21;100.00
13029;BME280;6581;42.662;23.402;2022-12-18T01:07:40;96162.13;;;6.17;100.00
13029;BME280;6581;42.662;23.402;2022-12-18T01:10:09;96169.13;;;6.22;100.00
13029;BME280;6581;42.662;23.402;2022-12-18T01:12:45;96162.75;;;6.14;100.00
13029;BME280;6581;42.662;23.402;2022-12-18T01:15:13;96165.69;;;6.13;100.00
13029;BME280;6581;42.662;23.402;2022-12-18T01:17:40;96178.84;;;6.04;100.00
13029;BME280;6581;42.662;23.402;2022-12-18T01:20:09;96166.41;;;5.96;100.00
13029;BME280;6581;42.662;23.402;2022-12-18T01:22:39;96160.09;;;5.97;100.00
13029;BME280;6581;42.662;23.402;2022-12-18T01:25:07;96167.97;;;5.97;100.00
13029;BME280;6581;42.662;23.402;2022-12-18T01:27:34;96175.06;;;5.88;100.00
13029;BME280;6581;42.662;23.402;2022-12-18T01:30:04;96171.06;;;5.91;100.00
13029;BME280;6581;42.662;23.402;2022-12-18T01:32:56;96169.13;;;5.82;100.00
13029;BME280;6581;42.662;23.402;2022-12-18T01:35:24;96174.94;;;5.93;100.00
13029;BME280;6581;42.662;23.402;2022-12-18T01:37:55;96182.53;;;5.95;100.00
13029;BME280;6581;42.662;23.402;2022-12-18T01:40:22;96175.66;;;5.85;100.00
13029;BME280;6581;42.662;23.402;2022-12-18T01:42:51;96182.75;;;5.76;100.00
13029;BME280;6581;42.662;23.402;2022-12-18T01:45:24;96187.47;;;5.65;100.00
13029;BME280;6581;42.662;23.402;2022-12-18T01:47:54;96185.63;;;5.66;100.00
13029;BME280;6581;42.662;23.402;2022-12-18T01:50:24;96187.63;;;5.60;100.00
13029;BME280;6581;42.662;23.402;2022-12-18T01:52:55;96189.13;;;5.53;100.00
13029;BME280;6581;42.662;23.402;2022-12-18T01:55:24;96202.88;;;5.50;100.00
13029;BME280;6581;42.662;23.402;2022-12-18T01:57:55;96205.66;;;5.45;100.00
13029;BME280;6581;42.662;23.402;2022-12-18T02:00:25;96194.94;;;5.41;100.00
13029;BME280;6581;42.662;23.402;2022-12-18T02:02:53;96202.66;;;5.38;100.00
13029;BME280;6581;42.662;23.402;2022-12-18T02:05:48;96214.38;;;5.31;100.00
13029;BME280;6581;42.662;23.402;2022-12-18T02:08:24;96203.50;;;5.24;100.00
13029;BME280;6581;42.662;23.402;2022-12-18T02:10:58;96206.31;;;5.28;100.00
13029;BME280;6581;42.662;23.402;2022-12-18T02:13:37;96210.50;;;5.29;100.00
13029;BME280;6581;42.662;23.402;2022-12-18T02:16:15;96215.28;;;5.27;100.00
13029;BME280;6581;42.662;23.402;2022-12-18T02:18:48;96212.22;;;5.33;100.00
13029;BME280;6581;42.662;23.402;2022-12-18T02:21:47;96225.34;;;5.33;100.00
13029;BME280;6581;42.662;23.402;2022-12-18T02:24:29;96227.97;;;5.33;100.00
13029;BME280;6581;42.662;23.402;2022-12-18T02:27:02;96226.56;;;5.27;100.00
13029;BME280;6581;42.662;23.402;2022-12-18T02:29:34;96229.19;;;5.27;100.00
13029;BME280;6581;42.662;23.402;2022-12-18T02:32:09;96223.59;;;5.20;100.00
13029;BME280;6581;42.662;23.402;2022-12-18T02:34:39;96226.34;;;5.15;100.00
13029;BME280;6581;42.662;23.402;2022-12-18T02:37:14;96225.50;;;5.06;100.00
13029;BME280;6581;42.662;23.402;2022-12-18T02:40:09;96225.91;;;5.00;100.00
13029;BME280;6581;42.662;23.402;2022-12-18T02:42:40;96239.41;;;5.07;100.00
13029;BME280;6581;42.662;23.402;2022-12-18T02:45:10;96231.03;;;5.05;100.00
13029;BME280;6581;42.662;23.402;2022-12-18T02:47:40;96244.78;;;5.02;100.00
13029;BME280;6581;42.662;23.402;2022-12-18T02:50:18;96229.69;;;4.85;100.00
13029;BME280;6581;42.662;23.402;2022-12-18T02:53:01;96235.38;;;4.87;100.00
13029;BME280;6581;42.662;23.402;2022-12-18T02:55:44;96235.50;;;4.82;100.00
13029;BME280;6581;42.662;23.402;2022-12-18T02:58:20;96243.69;;;4.80;100.00
13029;BME280;6581;42.662;23.402;2022-12-18T03:00:59;96235.03;;;4.80;100.00
13029;BME280;6581;42.662;23.402;2022-12-18T03:03:31;96260.78;;;4.78;100.00
13029;BME280;6581;42.662;23.402;2022-12-18T03:06:28;96246.88;;;4.77;100.00
13029;BME280;6581;42.662;23.402;2022-12-18T03:08:58;96258.00;;;4.74;100.00
13029;BME280;6581;42.662;23.402;2022-12-18T03:11:28;96276.75;;;4.68;100.00
13029;BME280;6581;42.662;23.402;2022-12-18T03:14:31;96267.81;;;4.69;100.00
13029;BME280;6581;42.662;23.402;2022-12-18T03:17:02;96267.81;;;4.69;100.00
13029;BME280;6581;42.662;23.402;2022-12-18T03:19:32;96265.28;;;4.77;100.00
13029;BME280;6581;42.662;23.402;2022-12-18T03:22:02;96269.00;;;4.76;100.00
13029;BME280;6581;42.662;23.402;2022-12-18T03:24:40;96273.34;;;4.81;100.00
13029;BME280;6581;42.662;23.402;2022-12-18T03:27:11;96269.94;;;4.80;100.00
13029;BME280;6581;42.662;23.402;2022-12-18T03:29:44;96266.94;;;4.73;100.00
13029;BME280;6581;42.662;23.402;2022-12-18T03:32:16;96278.09;;;4.79;100.00
13029;BME280;6581;42.662;23.402;2022-12-18T03:34:48;96284.75;;;4.76;100.00
13029;BME280;6581;42.662;23.402;2022-12-18T03:37:20;96289.22;;;4.76;100.00
13029;BME280;6581;42.662;23.402;2022-12-18T03:39:47;96286.75;;;4.79;100.00
13029;BME280;6581;42.662;23.402;2022-12-18T03:42:21;96295.91;;;4.68;100.00
13029;BME280;6581;42.662;23.402;2022-12-18T03:44:59;96289.88;;;4.68;100.00
13029;BME280;6581;42.662;23.402;2022-12-18T03:47:34;96290.88;;;4.72;100.00
13029;BME280;6581;42.662;23.402;2022-12-18T03:50:11;96302.91;;;4.73;100.00
13029;BME280;6581;42.662;23.402;2022-12-18T03:52:47;96309.13;;;4.77;100.00
13029;BME280;6581;42.662;23.402;2022-12-18T03:55:17;96324.59;;;4.78;100.00
13029;BME280;6581;42.662;23.402;2022-12-18T03:57:48;96316.03;;;4.73;100.00
13029;BME280;6581;42.662;23.402;2022-12-18T04:00:18;96324.41;;;4.75;100.00
13029;BME280;6581;42.662;23.402;2022-12-18T04:02:56;96311.44;;;4.78;100.00
13029;BME280;6581;42.662;23.402;2022-12-18T04:05:33;96319.41;;;4.87;100.00
13029;BME280;6581;42.662;23.402;2022-12-18T04:08:03;96314.47;;;4.85;100.00
13029;BME280;6581;42.662;23.402;2022-12-18T04:10:35;96325.34;;;4.93;100.00
13029;BME280;6581;42.662;23.402;2022-12-18T04:13:02;96318.94;;;4.85;100.00
13029;BME280;6581;42.662;23.402;2022-12-18T04:15:31;96320.78;;;4.84;100.00
13029;BME280;6581;42.662;23.402;2022-12-18T04:18:02;96328.66;;;4.84;100.00
13029;BME280;6581;42.662;23.402;2022-12-18T04:20:37;96339.66;;;4.73;100.00
13029;BME280;6581;42.662;23.402;2022-12-18T04:23:04;96341.91;;;4.66;100.00
13029;BME280;6581;42.662;23.402;2022-12-18T04:25:32;96337.25;;;4.63;100.00
13029;BME280;6581;42.662;23.402;2022-12-18T04:28:10;96340.53;;;4.68;100.00
13029;BME280;6581;42.662;23.402;2022-12-18T04:30:39;96345.69;;;4.73;100.00
13029;BME280;6581;42.662;23.402;2022-12-18T04:33:09;96341.13;;;4.65;100.00
13029;BME280;6581;42.662;23.402;2022-12-18T04:35:37;96355.50;;;4.68;100.00
13029;BME280;6581;42.662;23.402;2022-12-18T04:38:05;96348.50;;;4.63;100.00
13029;BME280;6581;42.662;23.402;2022-12-18T04:40:32;96352.41;;;4.66;100.00
13029;BME280;6581;42.662;23.402;2022-12-18T04:43:01;96365.53;;;4.66;100.00
13029;BME280;6581;42.662;23.402;2022-12-18T04:45:29;96356.00;;;4.56;100.00
13029;BME280;6581;42.662;23.402;2022-12-18T04:47:58;96368.25;;;4.61;100.00
13029;BME280;6581;42.662;23.402;2022-12-18T04:50:26;96376.72;;;4.58;100.00
13029;BME280;6581;42.662;23.402;2022-12-18T04:52:53;96377.00;;;4.42;100.00
13029;BME280;6581;42.662;23.402;2022-12-18T04:55:21;96381.09;;;4.49;100.00
13029;BME280;6581;42.662;23.402;2022-12-18T04:57:50;96380.00;;;4.50;100.00
13029;BME280;6581;42.662;23.402;2022-12-18T05:00:18;96382.75;;;4.58;100.00
13029;BME280;6581;42.662;23.402;2022-12-18T05:02:45;96372.72;;;4.60;100.00
13029;BME280;6581;42.662;23.402;2022-12-18T05:05:14;96379.63;;;4.56;100.00
13029;BME280;6581;42.662;23.402;2022-12-18T05:07:41;96381.28;;;4.52;100.00
13029;BME280;6581;42.662;23.402;2022-12-18T05:10:08;96389.53;;;4.45;100.00
13029;BME280;6581;42.662;23.402;2022-12-18T05:12:36;96395.19;;;4.39;100.00
13029;BME280;6581;42.662;23.402;2022-12-18T05:15:24;96399.66;;;4.52;100.00
13029;BME280;6581;42.662;23.402;2022-12-18T05:17:51;96405.50;;;4.49;100.00
13029;BME280;6581;42.662;23.402;2022-12-18T05:20:19;96410.03;;;4.43;100.00
13029;BME280;6581;42.662;23.402;2022-12-18T05:22:46;96411.19;;;4.37;100.00
13029;BME280;6581;42.662;23.402;2022-12-18T05:25:13;96428.66;;;4.28;100.00
13029;BME280;6581;42.662;23.402;2022-12-18T05:27:41;96418.09;;;4.33;100.00
13029;BME280;6581;42.662;23.402;2022-12-18T05:30:08;96426.13;;;4.23;100.00
13029;BME280;6581;42.662;23.402;2022-12-18T05:32:36;96425.16;;;4.19;100.00
13029;BME280;6581;42.662;23.402;2022-12-18T05:35:05;96420.00;;;4.14;100.00
13029;BME280;6581;42.662;23.402;2022-12-18T05:37:34;96437.50;;;4.19;100.00
13029;BME280;6581;42.662;23.402;2022-12-18T05:40:02;96438.16;;;4.11;100.00
13029;BME280;6581;42.662;23.402;2022-12-18T05:42:30;96427.94;;;4.09;100.00
13029;BME280;6581;42.662;23.402;2022-12-18T05:44:57;96447.59;;;4.12;100.00
13029;BME280;6581;42.662;23.402;2022-12-18T05:47:24;96439.03;;;4.06;100.00
13029;BME280;6581;42.662;23.402;2022-12-18T05:49:51;96444.47;;;4.10;100.00
13029;BME280;6581;42.662;23.402;2022-12-18T05:52:18;96446.72;;;4.16;100.00
13029;BME280;6581;42.662;23.402;2022-12-18T05:54:47;96453.50;;;4.17;100.00
13029;BME280;6581;42.662;23.402;2022-12-18T05:57:14;96452.16;;;4.20;100.00
13029;BME280;6581;42.662;23.402;2022-12-18T05:59:42;96448.19;;;4.22;100.00
13029;BME280;6581;42.662;23.402;2022-12-18T06:02:10;96452.78;;;4.30;100.00
13029;BME280;6581;42.662;23.402;2022-12-18T06:04:37;96463.16;;;4.35;100.00
13029;BME280;6581;42.662;23.402;2022-12-18T06:07:04;96463.28;;;4.30;100.00
13029;BME280;6581;42.662;23.402;2022-12-18T06:09:31;96465.47;;;4.23;100.00
13029;BME280;6581;42.662;23.402;2022-12-18T06:12:00;96474.00;;;4.15;100.00
13029;BME280;6581;42.662;23.402;2022-12-18T06:14:27;96471.13;;;4.17;100.00
13029;BME280;6581;42.662;23.402;2022-12-18T06:16:55;96480.31;;;4.14;100.00
13029;BME280;6581;42.662;23.402;2022-12-18T06:19:22;96480.81;;;4.16;100.00
13029;BME280;6581;42.662;23.402;2022-12-18T06:21:49;96471.13;;;4.17;100.00
13029;BME280;6581;42.662;23.402;2022-12-18T06:24:17;96493.16;;;4.16;100.00
13029;BME280;6581;42.662;23.402;2022-12-18T06:26:44;96495.56;;;4.12;100.00
13029;BME280;6581;42.662;23.402;2022-12-18T06:29:12;96476.72;;;4.10;100.00
13029;BME280;6581;42.662;23.402;2022-12-18T06:31:39;96507.47;;;4.05;100.00
13029;BME280;6581;42.662;23.402;2022-12-18T06:34:06;96508.41;;;3.95;100.00
13029;BME280;6581;42.662;23.402;2022-12-18T06:36:34;96507.94;;;3.93;100.00
13029;BME280;6581;42.662;23.402;2022-12-18T06:39:01;96514.63;;;3.99;100.00
13029;BME280;6581;42.662;23.402;2022-12-18T06:41:28;96511.66;;;4.06;100.00
13029;BME280;6581;42.662;23.402;2022-12-18T06:43:55;96516.84;;;4.11;100.00
13029;BME280;6581;42.662;23.402;2022-12-18T06:46:25;96518.09;;;4.13;100.00
13029;BME280;6581;42.662;23.402;2022-12-18T06:48:52;96517.88;;;4.10;100.00
13029;BME280;6581;42.662;23.402;2022-12-18T06:51:20;96518.75;;;4.05;100.00
13029;BME280;6581;42.662;23.402;2022-12-18T06:53:48;96518.09;;;4.13;100.00
13029;BME280;6581;42.662;23.402;2022-12-18T06:56:16;96523.91;;;4.10;100.00
13029;BME280;6581;42.662;23.402;2022-12-18T06:58:43;96519.38;;;4.16;100.00
13029;BME280;6581;42.662;23.402;2022-12-18T07:01:11;96535.16;;;4.29;100.00
13029;BME280;6581;42.662;23.402;2022-12-18T07:03:40;96540.84;;;4.18;100.00
13029;BME280;6581;42.662;23.402;2022-12-18T07:06:13;96531.72;;;4.15;100.00
13029;BME280;6581;42.662;23.402;2022-12-18T07:08:40;96533.34;;;4.11;100.00
13029;BME280;6581;42.662;23.402;2022-12-18T07:11:07;96542.41;;;4.19;100.00
13029;BME280;6581;42.662;23.402;2022-12-18T07:13:34;96548.09;;;4.26;100.00
13029;BME280;6581;42.662;23.402;2022-12-18T07:16:06;96540.22;;;4.26;100.00
13029;BME280;6581;42.662;23.402;2022-12-18T07:18:34;96544.41;;;4.40;99.78
13029;BME280;6581;42.662;23.402;2022-12-18T07:21:07;96552.66;;;4.34;98.08
13029;BME280;6581;42.662;23.402;2022-12-18T07:23:35;96548.28;;;4.29;99.19
13029;BME280;6581;42.662;23.402;2022-12-18T07:26:03;96550.47;;;4.22;98.69
13029;BME280;6581;42.662;23.402;2022-12-18T07:28:31;96538.34;;;4.26;99.43
13029;BME280;6581;42.662;23.402;2022-12-18T07:31:02;96549.06;;;4.30;99.72
13029;BME280;6581;42.662;23.402;2022-12-18T07:33:29;96549.91;;;4.25;99.33
13029;BME280;6581;42.662;23.402;2022-12-18T07:35:58;96553.81;;;4.28;99.30
13029;BME280;6581;42.662;23.402;2022-12-18T07:38:27;96561.31;;;4.34;98.97
13029;BME280;6581;42.662;23.402;2022-12-18T07:40:54;96574.13;;;4.36;98.88
13029;BME280;6581;42.662;23.402;2022-12-18T07:43:21;96573.16;;;4.32;99.21
13029;BME280;6581;42.662;23.402;2022-12-18T07:45:49;96558.97;;;4.33;100.00
13029;BME280;6581;42.662;23.402;2022-12-18T07:48:17;96577.22;;;4.24;99.08
13029;BME280;6581;42.662;23.402;2022-12-18T07:50:44;96578.13;;;4.15;99.62
13029;BME280;6581;42.662;23.402;2022-12-18T07:53:11;96578.19;;;4.10;99.77
13029;BME280;6581;42.662;23.402;2022-12-18T07:55:39;96573.16;;;4.13;100.00
13029;BME280;6581;42.662;23.402;2022-12-18T07:58:07;96576.38;;;4.10;99.89
13029;BME280;6581;42.662;23.402;2022-12-18T08:00:38;96583.88;;;3.98;100.00
13029;BME280;6581;42.662;23.402;2022-12-18T08:03:05;96593.09;;;3.95;100.00
13029;BME280;6581;42.662;23.402;2022-12-18T08:05:34;96600.16;;;3.95;100.00
13029;BME280;6581;42.662;23.402;2022-12-18T08:08:01;96600.09;;;4.00;100.00
13029;BME280;6581;42.662;23.402;2022-12-18T08:10:28;96615.50;;;4.07;100.00
13029;BME280;6581;42.662;23.402;2022-12-18T08:12:57;96610.66;;;3.95;100.00
13029;BME280;6581;42.662;23.402;2022-12-18T08:15:24;96615.09;;;3.94;100.00
13029;BME280;6581;42.662;23.402;2022-12-18T08:17:51;96617.41;;;4.01;100.00
13029;BME280;6581;42.662;23.402;2022-12-18T08:20:18;96622.38;;;4.03;100.00
13029;BME280;6581;42.662;23.402;2022-12-18T08:22:45;96624.94;;;4.08;100.00
13029;BME280;6581;42.662;23.402;2022-12-18T08:25:13;96630.34;;;3.92;100.00
13029;BME280;6581;42.662;23.402;2022-12-18T08:27:43;96628.84;;;3.86;100.00
13029;BME280;6581;42.662;23.402;2022-12-18T08:30:15;96644.31;;;3.88;100.00
13029;BME280;6581;42.662;23.402;2022-12-18T08:32:46;96630.84;;;3.94;100.00
13029;BME280;6581;42.662;23.402;2022-12-18T08:35:15;96634.31;;;3.90;100.00
13029;BME280;6581;42.662;23.402;2022-12-18T08:37:45;96640.63;;;3.89;100.00
13029;BME280;6581;42.662;23.402;2022-12-18T08:40:12;96639.00;;;3.93;100.00
13029;BME280;6581;42.662;23.402;2022-12-18T08:42:39;96633.69;;;3.98;100.00
13029;BME280;6581;42.662;23.402;2022-12-18T08:45:26;96631.88;;;3.98;99.77
13029;BME280;6581;42.662;23.402;2022-12-18T08:47:53;96638.09;;;4.03;100.00
13029;BME280;6581;42.662;23.402;2022-12-18T08:50:21;96643.88;;;3.99;99.97
13029;BME280;6581;42.662;23.402;2022-12-18T08:52:48;96644.88;;;4.03;100.00
13029;BME280;6581;42.662;23.402;2022-12-18T08:55:15;96638.53;;;4.10;99.75
13029;BME280;6581;42.662;23.402;2022-12-18T08:57:42;96632.56;;;4.04;99.27
13029;BME280;6581;42.662;23.402;2022-12-18T09:00:11;96645.19;;;4.02;99.07
13029;BME280;6581;42.662;23.402;2022-12-18T09:02:40;96640.78;;;3.97;99.39
13029;BME280;6581;42.662;23.402;2022-12-18T09:05:07;96631.88;;;3.98;98.85
13029;BME280;6581;42.662;23.402;2022-12-18T09:07:34;96641.22;;;4.05;98.23
13029;BME280;6581;42.662;23.402;2022-12-18T09:10:01;96634.25;;;3.95;97.05
13029;BME280;6581;42.662;23.402;2022-12-18T09:12:28;96639.72;;;3.98;96.70
13029;BME280;6581;42.662;23.402;2022-12-18T09:14:56;96628.78;;;3.91;96.89
13029;BME280;6581;42.662;23.402;2022-12-18T09:17:23;96635.09;;;3.90;96.21
13029;BME280;6581;42.662;23.402;2022-12-18T09:19:52;96630.63;;;3.91;96.85
13029;BME280;6581;42.662;23.402;2022-12-18T09:22:22;96638.09;;;4.03;96.21
13029;BME280;6581;42.662;23.402;2022-12-18T09:24:50;96645.59;;;4.09;95.28
13029;BME280;6581;42.662;23.402;2022-12-18T09:27:17;96644.81;;;4.09;95.79
13029;BME280;6581;42.662;23.402;2022-12-18T09:29:44;96638.44;;;4.15;94.29
13029;BME280;6581;42.662;23.402;2022-12-18T09:32:12;96640.88;;;4.11;93.65
13029;BME280;6581;42.662;23.402;2022-12-18T09:34:39;96638.97;;;4.17;92.38
13029;BME280;6581;42.662;23.402;2022-12-18T09:37:07;96644.69;;;4.19;92.30
13029;BME280;6581;42.662;23.402;2022-12-18T09:39:34;96645.69;;;4.23;92.80
13029;BME280;6581;42.662;23.402;2022-12-18T09:42:02;96640.63;;;4.26;91.90
13029;BME280;6581;42.662;23.402;2022-12-18T09:44:32;96656.38;;;4.26;92.13
13029;BME280;6581;42.662;23.402;2022-12-18T09:47:08;96653.69;;;4.31;92.42
13029;BME280;6581;42.662;23.402;2022-12-18T09:49:42;96651.06;;;4.31;91.59
13029;BME280;6581;42.662;23.402;2022-12-18T09:52:14;96646.97;;;4.25;92.02
13029;BME280;6581;42.662;23.402;2022-12-18T09:54:45;96640.56;;;4.31;92.14
13029;BME280;6581;42.662;23.402;2022-12-18T09:57:39;96633.69;;;4.35;92.34
13029;BME280;6581;42.662;23.402;2022-12-18T10:00:16;96657.16;;;4.27;92.08
13029;BME280;6581;42.662;23.402;2022-12-18T10:02:44;96642.91;;;4.33;91.76
13029;BME280;6581;42.662;23.402;2022-12-18T10:05:13;96655.91;;;4.43;92.60
13029;BME280;6581;42.662;23.402;2022-12-18T10:07:49;96642.19;;;4.46;91.94
13029;BME280;6581;42.662;23.402;2022-12-18T10:10:30;96639.84;;;4.63;91.83
13029;BME280;6581;42.662;23.402;2022-12-18T10:13:04;96648.81;;;4.62;90.30
13029;BME280;6581;42.662;23.402;2022-12-18T10:15:38;96648.72;;;4.67;89.16
13029;BME280;6581;42.662;23.402;2022-12-18T10:18:21;96652.06;;;4.54;88.29
13029;BME280;6581;42.662;23.402;2022-12-18T10:20:53;96655.91;;;4.62;89.23
13029;BME280;6581;42.662;23.402;2022-12-18T10:23:26;96646.31;;;4.71;88.05
13029;BME280;6581;42.662;23.402;2022-12-18T10:26:01;96648.56;;;4.59;87.98
13029;BME280;6581;42.662;23.402;2022-12-18T10:28:54;96654.78;;;4.49;88.11
13029;BME280;6581;42.662;23.402;2022-12-18T10:31:24;96648.88;;;4.57;88.70
13029;BME280;6581;42.662;23.402;2022-12-18T10:33:53;96653.41;;;4.52;87.68
13029;BME280;6581;42.662;23.402;2022-12-18T10:36:22;96647.88;;;4.53;88.75
13029;BME280;6581;42.662;23.402;2022-12-18T10:38:56;96651.47;;;4.76;87.72
13029;BME280;6581;42.662;23.402;2022-12-18T10:41:40;96645.41;;;4.62;87.68
13029;BME280;6581;42.662;23.402;2022-12-18T10:44:16;96647.88;;;4.53;87.10
13029;BME280;6581;42.662;23.402;2022-12-18T10:46:44;96644.59;;;4.61;88.46
13029;BME280;6581;42.662;23.402;2022-12-18T10:49:21;96642.34;;;4.55;88.08
13029;BME280;6581;42.662;23.402;2022-12-18T10:51:49;96640.75;;;4.72;88.83
13029;BME280;6581;42.662;23.402;2022-12-18T10:54:22;96637.03;;;4.92;88.51
13029;BME280;6581;42.662;23.402;2022-12-18T10:56:49;96645.72;;;5.06;87.99
13029;BME280;6581;42.662;23.402;2022-12-18T10:59:17;96633.78;;;5.27;88.12
13029;BME280;6581;42.662;23.402;2022-12-18T11:01:47;96636.91;;;5.29;87.93
13029;BME280;6581;42.662;23.402;2022-12-18T11:04:19;96629.72;;;5.35;86.72
13029;BME280;6581;42.662;23.402;2022-12-18T11:06:58;96639.03;;;5.41;86.74
13029;BME280;6581;42.662;23.402;2022-12-18T11:09:28;96634.38;;;5.52;87.76
13029;BME280;6581;42.662;23.402;2022-12-18T11:11:58;96633.31;;;5.39;86.76
13029;BME280;6581;42.662;23.402;2022-12-18T11:14:29;96640.91;;;5.41;87.40
13029;BME280;6581;42.662;23.402;2022-12-18T11:16:59;96632.16;;;5.31;86.95
13029;BME280;6581;42.662;23.402;2022-12-18T11:19:32;96641.19;;;5.39;87.05
13029;BME280;6581;42.662;23.402;2022-12-18T11:22:01;96646.75;;;5.51;85.86
13029;BME280;6581;42.662;23.402;2022-12-18T11:24:33;96653.44;;;5.16;86.02
13029;BME280;6581;42.662;23.402;2022-12-18T11:27:02;96655.19;;;5.21;85.43
13029;BME280;6581;42.662;23.402;2022-12-18T11:29:33;96638.44;;;5.17;84.30
13029;BME280;6581;42.662;23.402;2022-12-18T11:32:27;96648.66;;;5.18;84.44
13029;BME280;6581;42.662;23.402;2022-12-18T11:35:01;96648.72;;;5.13;84.44
13029;BME280;6581;42.662;23.402;2022-12-18T11:37:31;96655.41;;;4.92;84.88
13029;BME280;6581;42.662;23.402;2022-12-18T11:40:06;96652.94;;;4.82;85.88
13029;BME280;6581;42.662;23.402;2022-12-18T11:42:41;96652.56;;;4.88;87.67
13029;BME280;6581;42.662;23.402;2022-12-18T11:45:33;96652.91;;;5.01;86.11
13029;BME280;6581;42.662;23.402;2022-12-18T11:48:05;96653.09;;;5.04;87.87
13029;BME280;6581;42.662;23.402;2022-12-18T11:50:45;96652.34;;;5.04;86.06
13029;BME280;6581;42.662;23.402;2022-12-18T11:53:13;96653.78;;;5.10;86.36
13029;BME280;6581;42.662;23.402;2022-12-18T11:55:49;96658.25;;;5.09;85.59
13029;BME280;6581;42.662;23.402;2022-12-18T11:58:30;96663.59;;;5.04;85.59
13029;BME280;6581;42.662;23.402;2022-12-18T12:01:11;96655.63;;;5.09;86.15
13029;BME280;6581;42.662;23.402;2022-12-18T12:04:10;96644.94;;;5.06;85.41
13029;BME280;6581;42.662;23.402;2022-12-18T12:06:51;96648.25;;;5.11;85.35
13029;BME280;6581;42.662;23.402;2022-12-18T12:09:31;96644.75;;;5.02;84.60
13029;BME280;6581;42.662;23.402;2022-12-18T12:12:17;96655.31;;;4.97;84.53
13029;BME280;6581;42.662;23.402;2022-12-18T12:14:52;96651.91;;;4.97;85.62
13029;BME280;6581;42.662;23.402;2022-12-18T12:17:30;96656.59;;;5.00;85.41
13029;BME280;6581;42.662;23.402;2022-12-18T12:20:12;96654.34;;;4.93;86.02
13029;BME280;6581;42.662;23.402;2022-12-18T12:22:49;96665.19;;;4.86;85.55
13029;BME280;6581;42.662;23.402;2022-12-18T12:25:31;96660.78;;;5.01;85.17
13029;BME280;6581;42.662;23.402;2022-12-18T12:28:12;96660.03;;;5.14;85.48
13029;BME280;6581;42.662;23.402;2022-12-18T12:30:52;96658.97;;;5.15;85.56
13029;BME280;6581;42.662;23.402;2022-12-18T12:33:33;96657.31;;;5.19;85.66
13029;BME280;6581;42.662;23.402;2022-12-18T12:36:08;96669.81;;;5.27;85.58
13029;BME280;6581;42.662;23.402;2022-12-18T12:38:41;96662.91;;;5.31;83.87
13029;BME280;6581;42.662;23.402;2022-12-18T12:41:13;96660.53;;;5.16;84.19
13029;BME280;6581;42.662;23.402;2022-12-18T12:43:58;96662.47;;;5.10;84.60
13029;BME280;6581;42.662;23.402;2022-12-18T12:46:30;96657.19;;;5.10;85.09
13029;BME280;6581;42.662;23.402;2022-12-18T12:49:02;96657.94;;;5.29;84.74
13029;BME280;6581;42.662;23.402;2022-12-18T12:51:33;96650.25;;;5.33;83.86
13029;BME280;6581;42.662;23.402;2022-12-18T12:54:03;96671.16;;;5.24;84.22
13029;BME280;6581;42.662;23.402;2022-12-18T12:56:42;96666.28;;;5.18;84.21
13029;BME280;6581;42.662;23.402;2022-12-18T12:59:15;96671.44;;;5.23;85.57
13029;BME280;6581;42.662;23.402;2022-12-18T13:01:53;96679.13;;;5.19;84.72
13029;BME280;6581;42.662;23.402;2022-12-18T13:04:30;96679.81;;;5.25;85.17
13029;BME280;6581;42.662;23.402;2022-12-18T13:07:05;96679.75;;;5.44;84.59
13029;BME280;6581;42.662;23.402;2022-12-18T13:09:33;96686.06;;;5.43;84.87
13029;BME280;6581;42.662;23.402;2022-12-18T13:12:03;96687.53;;;5.35;85.29
13029;BME280;6581;42.662;23.402;2022-12-18T13:14:50;96694.59;;;5.21;84.65
13029;BME280;6581;42.662;23.402;2022-12-18T13:17:29;96690.91;;;5.22;84.75
13029;BME280;6581;42.662;23.402;2022-12-18T13:20:06;96695.78;;;5.28;86.89
13029;BME280;6581;42.662;23.402;2022-12-18T13:23:01;96681.47;;;5.21;86.02
13029;BME280;6581;42.662;23.402;2022-12-18T13:25:30;96698.03;;;5.35;88.95
13029;BME280;6581;42.662;23.402;2022-12-18T13:28:08;96695.53;;;5.44;86.86